createdAt,value
2019-06-20T00:01:40.044Z,8.87
2019-06-20T00:04:09.448Z,8.43
2019-06-20T00:06:38.934Z,9.10
2019-06-20T00:09:09.313Z,8.37
2019-06-20T00:11:39.033Z,8.33
2019-06-20T00:14:08.440Z,9.30
2019-06-20T00:16:37.871Z,9.17
2019-06-20T00:19:07.304Z,8.90
2019-06-20T00:21:36.727Z,8.57
2019-06-20T00:24:06.228Z,8.33
2019-06-20T00:26:35.711Z,8.30
2019-06-20T00:29:05.334Z,8.27
2019-06-20T00:31:34.783Z,9.03
2019-06-20T00:34:04.183Z,9.70
2019-06-20T00:36:34.539Z,9.20
2019-06-20T00:39:04.571Z,10.73
2019-06-20T00:41:34.023Z,10.40
2019-06-20T00:44:03.537Z,10.33
2019-06-20T00:46:32.899Z,10.83
2019-06-20T00:49:02.349Z,11.27
2019-06-20T00:51:31.793Z,10.40
2019-06-20T00:54:01.171Z,10.80
2019-06-20T00:56:30.589Z,10.07
2019-06-20T00:58:59.955Z,10.20
2019-06-20T01:01:29.350Z,11.00
2019-06-20T01:03:58.778Z,10.57
2019-06-20T01:06:28.131Z,11.00
2019-06-20T01:08:57.893Z,10.63
2019-06-20T01:11:27.237Z,8.77
2019-06-20T01:13:56.662Z,8.77
2019-06-20T01:16:26.134Z,7.87
2019-06-20T01:18:55.572Z,8.37
2019-06-20T01:21:25.003Z,8.70
2019-06-20T01:23:54.452Z,8.53
2019-06-20T01:26:23.890Z,8.20
2019-06-20T01:28:53.263Z,8.50
2019-06-20T01:31:22.690Z,7.67
2019-06-20T01:33:52.370Z,7.93
2019-06-20T01:36:21.818Z,8.43
2019-06-20T01:38:52.098Z,8.13
2019-06-20T01:41:21.577Z,8.27
2019-06-20T01:43:51.293Z,8.97
2019-06-20T01:46:20.790Z,8.47
2019-06-20T01:48:50.282Z,8.57
2019-06-20T01:51:19.685Z,8.10
2019-06-20T01:53:49.094Z,8.13
2019-06-20T01:56:18.517Z,8.00
2019-06-20T01:58:47.926Z,7.67
2019-06-20T02:01:17.384Z,7.73
2019-06-20T02:03:46.767Z,8.70
2019-06-20T02:06:16.289Z,8.00
2019-06-20T02:08:45.693Z,8.53
2019-06-20T02:11:15.189Z,8.23
2019-06-20T02:13:44.964Z,8.43
2019-06-20T02:16:14.628Z,8.20
2019-06-20T02:18:44.015Z,8.13
2019-06-20T02:21:13.382Z,8.20
2019-06-20T02:23:42.746Z,8.10
2019-06-20T02:26:12.556Z,7.47
2019-06-20T02:28:41.949Z,8.53
2019-06-20T02:31:11.363Z,7.23
2019-06-20T02:33:40.777Z,6.93
2019-06-20T02:36:11.039Z,6.87
2019-06-20T02:38:40.424Z,6.87
2019-06-20T02:41:09.879Z,7.13
2019-06-20T02:43:39.351Z,7.00
2019-06-20T02:46:08.849Z,7.30
2019-06-20T02:48:38.375Z,6.73
2019-06-20T02:51:07.859Z,7.47
2019-06-20T02:53:37.277Z,7.67
2019-06-20T02:56:06.726Z,7.53
2019-06-20T02:58:36.274Z,8.10
2019-06-20T03:01:06.062Z,8.73
2019-06-20T03:03:35.529Z,10.00
2019-06-20T03:06:05.312Z,13.20
2019-06-20T03:08:34.804Z,13.00
2019-06-20T03:11:04.346Z,11.73
2019-06-20T03:13:33.710Z,11.60
2019-06-20T03:16:03.101Z,14.27
2019-06-20T03:18:32.493Z,14.23
2019-06-20T03:21:01.925Z,14.33
2019-06-20T03:23:31.763Z,14.80
2019-06-20T03:26:01.217Z,15.23
2019-06-20T03:28:30.545Z,14.07
2019-06-20T03:30:59.910Z,15.50
2019-06-20T03:33:29.332Z,15.60
2019-06-20T03:35:59.549Z,14.77
2019-06-20T03:38:28.954Z,14.67
2019-06-20T03:40:58.447Z,15.33
2019-06-20T03:43:28.144Z,14.90
2019-06-20T03:45:58.400Z,14.73
2019-06-20T03:48:27.925Z,15.53
2019-06-20T03:50:57.717Z,15.00
2019-06-20T03:53:27.141Z,15.27
2019-06-20T03:55:56.549Z,17.83
2019-06-20T03:58:25.903Z,20.83
2019-06-20T04:00:55.307Z,21.80
2019-06-20T04:03:24.763Z,24.10
2019-06-20T04:05:54.179Z,26.97
2019-06-20T04:08:23.536Z,27.27
2019-06-20T04:10:54.041Z,27.87
2019-06-20T04:13:23.422Z,29.77
2019-06-20T04:15:52.870Z,27.10
2019-06-20T04:18:23.483Z,31.27
2019-06-20T04:20:52.879Z,31.40
2019-06-20T04:23:22.246Z,33.57
2019-06-20T04:25:51.738Z,33.20
2019-06-20T04:28:21.143Z,30.43
2019-06-20T04:30:50.497Z,29.40
2019-06-20T04:33:19.915Z,27.47
2019-06-20T04:35:50.485Z,26.33
2019-06-20T04:38:19.837Z,26.17
2019-06-20T04:40:49.595Z,25.40
2019-06-20T04:43:20.167Z,29.70
2019-06-20T04:46:14.737Z,28.90
2019-06-20T04:48:44.435Z,28.03
2019-06-20T04:51:13.843Z,26.57
2019-06-20T04:53:44.058Z,26.07
2019-06-20T04:56:13.419Z,28.23
2019-06-20T04:58:42.870Z,25.30
2019-06-20T05:01:12.755Z,25.57
2019-06-20T05:03:42.334Z,25.37
2019-06-20T05:06:11.761Z,24.77
2019-06-20T05:08:41.280Z,25.90
2019-06-20T05:11:11.516Z,26.30
2019-06-20T05:13:40.985Z,27.77
2019-06-20T05:16:10.487Z,26.30
2019-06-20T05:18:39.937Z,27.07
2019-06-20T05:21:09.396Z,26.57
2019-06-20T05:23:38.845Z,23.87
2019-06-20T05:26:08.240Z,22.07
2019-06-20T05:28:37.839Z,21.37
2019-06-20T05:31:07.359Z,23.87
2019-06-20T05:33:36.795Z,23.23
2019-06-20T05:36:07.239Z,20.93
2019-06-20T05:38:37.464Z,18.43
2019-06-20T05:41:06.935Z,16.90
2019-06-20T05:43:36.746Z,14.93
2019-06-20T05:46:10.802Z,15.48
2019-06-20T05:48:37.414Z,15.68
2019-06-20T05:51:07.777Z,16.25
2019-06-20T05:53:37.173Z,16.80
2019-06-20T05:56:08.718Z,15.50
2019-06-20T05:58:38.273Z,15.88
2019-06-20T06:01:07.802Z,17.07
2019-06-20T06:03:37.218Z,17.92
2019-06-20T06:06:06.609Z,17.23
2019-06-20T06:08:36.110Z,16.65
2019-06-20T06:11:06.812Z,16.37
2019-06-20T06:13:36.682Z,17.02
2019-06-20T06:16:06.172Z,17.67
2019-06-20T06:18:35.588Z,16.87
2019-06-20T06:21:05.238Z,17.80
2019-06-20T06:23:34.656Z,20.23
2019-06-20T06:26:04.137Z,20.30
2019-06-20T06:28:33.569Z,19.27
2019-06-20T06:31:02.983Z,20.97
2019-06-20T06:33:32.444Z,19.75
2019-06-20T06:36:01.887Z,23.83
2019-06-20T06:38:31.505Z,21.17
2019-06-20T06:41:00.905Z,20.90
2019-06-20T06:43:30.343Z,21.33
2019-06-20T06:45:59.797Z,23.12
2019-06-20T06:48:29.170Z,23.27
2019-06-20T06:50:58.595Z,23.90
2019-06-20T06:53:27.968Z,21.82
2019-06-20T06:55:57.364Z,22.60
2019-06-20T06:58:26.752Z,22.30
2019-06-20T07:00:56.598Z,22.50
2019-06-20T07:03:26.003Z,22.55
2019-06-20T07:05:55.458Z,22.67
2019-06-20T07:08:24.905Z,24.35
2019-06-20T07:10:54.280Z,22.27
2019-06-20T07:13:23.817Z,21.55
2019-06-20T07:15:53.390Z,22.50
2019-06-20T07:18:22.938Z,23.70
2019-06-20T07:20:52.376Z,24.40
2019-06-20T07:23:22.034Z,21.45
2019-06-20T07:25:51.444Z,19.12
2019-06-20T07:28:21.023Z,20.82
2019-06-20T07:30:50.473Z,21.45
2019-06-20T07:33:19.831Z,21.05
2019-06-20T07:35:49.443Z,20.05
2019-06-20T07:38:18.931Z,18.82
2019-06-20T07:40:48.276Z,19.80
2019-06-20T07:43:17.708Z,19.60
2019-06-20T07:46:01.396Z,20.82
2019-06-20T07:48:18.197Z,20.60
2019-06-20T07:50:47.682Z,19.52
2019-06-20T07:53:17.098Z,18.32
2019-06-20T07:55:46.527Z,18.92
2019-06-20T07:58:15.920Z,17.98
2019-06-20T08:00:45.404Z,15.78
2019-06-20T08:03:14.780Z,15.88
2019-06-20T08:05:44.185Z,15.43
2019-06-20T08:08:13.592Z,15.58
2019-06-20T08:10:42.970Z,14.87
2019-06-20T08:13:12.444Z,14.95
2019-06-20T08:15:41.810Z,15.55
2019-06-20T08:18:11.218Z,15.90
2019-06-20T08:20:40.950Z,16.77
2019-06-20T08:23:10.354Z,16.35
2019-06-20T08:25:39.748Z,15.53
2019-06-20T08:28:09.163Z,14.93
2019-06-20T08:30:38.721Z,13.05
2019-06-20T08:33:11.908Z,13.50
2019-06-20T08:35:40.422Z,14.55
2019-06-20T08:38:09.806Z,13.48
2019-06-20T08:40:40.758Z,14.75
2019-06-20T08:43:10.175Z,11.08
2019-06-20T08:45:40.565Z,13.43
2019-06-20T08:48:10.282Z,12.37
2019-06-20T08:50:39.661Z,12.98
2019-06-20T08:53:09.216Z,12.05
2019-06-20T08:55:38.578Z,12.10
2019-06-20T08:58:07.948Z,11.45
2019-06-20T09:00:39.170Z,10.93
2019-06-20T09:03:08.735Z,10.15
2019-06-20T09:05:38.215Z,9.05
2019-06-20T09:08:11.287Z,9.65
2019-06-20T09:10:40.273Z,10.70
2019-06-20T09:13:11.185Z,9.95
2019-06-20T09:15:40.592Z,10.05
2019-06-20T09:18:09.939Z,8.60
2019-06-20T09:20:40.079Z,8.68
2019-06-20T09:23:09.456Z,8.70
2019-06-20T09:25:39.420Z,8.90
2019-06-20T09:28:09.610Z,8.28
2019-06-20T09:30:39.284Z,8.15
2019-06-20T09:33:09.441Z,8.30
2019-06-20T09:35:38.781Z,8.95
2019-06-20T09:38:08.472Z,7.60
2019-06-20T09:40:37.829Z,8.88
2019-06-20T09:43:07.515Z,8.15
2019-06-20T09:45:37.331Z,8.18
2019-06-20T09:48:06.684Z,8.75
2019-06-20T09:50:36.050Z,9.50
2019-06-20T09:53:05.425Z,8.93
2019-06-20T09:55:34.891Z,9.43
2019-06-20T09:58:04.339Z,9.78
2019-06-20T10:00:34.112Z,10.18
2019-06-20T10:03:03.888Z,10.08
2019-06-20T10:05:33.241Z,26.52
2019-06-20T10:08:02.637Z,13.48
2019-06-20T10:10:33.593Z,10.72
2019-06-20T10:13:02.945Z,10.28
2019-06-20T10:15:33.631Z,10.35
2019-06-20T10:18:03.040Z,11.43
2019-06-20T10:20:32.719Z,11.25
2019-06-20T10:23:02.130Z,10.20
2019-06-20T10:25:31.557Z,11.08
2019-06-20T10:28:00.886Z,10.93
2019-06-20T10:30:30.372Z,11.90
2019-06-20T10:32:59.774Z,11.10
2019-06-20T10:35:29.152Z,11.12
2019-06-20T10:37:58.515Z,10.65
2019-06-20T10:40:28.058Z,10.82
2019-06-20T10:42:57.424Z,11.95
2019-06-20T10:45:27.208Z,10.48
2019-06-20T10:47:56.658Z,11.08
2019-06-20T10:50:26.423Z,10.78
2019-06-20T10:52:55.845Z,10.18
2019-06-20T10:55:25.996Z,10.35
2019-06-20T10:57:55.464Z,10.38
2019-06-20T11:00:31.360Z,10.60
2019-06-20T11:02:57.048Z,10.32
2019-06-20T11:05:26.641Z,10.80
2019-06-20T11:07:55.987Z,10.43
2019-06-20T11:10:25.673Z,10.65
2019-06-20T11:12:56.335Z,10.70
2019-06-20T11:15:26.219Z,10.28
2019-06-20T11:17:56.871Z,11.28
2019-06-20T11:20:26.672Z,10.23
2019-06-20T11:22:56.035Z,10.78
2019-06-20T11:25:25.386Z,10.65
2019-06-20T11:27:54.750Z,10.75
2019-06-20T11:30:25.994Z,9.83
2019-06-20T11:32:55.374Z,10.30
2019-06-20T11:35:24.750Z,10.72
2019-06-20T11:37:54.131Z,10.08
2019-06-20T11:40:23.711Z,10.32
2019-06-20T11:42:53.058Z,10.95
2019-06-20T11:45:22.642Z,12.45
2019-06-20T11:47:52.043Z,12.45
2019-06-20T11:50:22.917Z,11.20
2019-06-20T11:52:52.333Z,10.78
2019-06-20T11:55:22.006Z,11.38
2019-06-20T11:57:51.359Z,10.55
2019-06-20T12:00:21.800Z,10.82
2019-06-20T12:02:51.183Z,9.93
2019-06-20T12:05:20.794Z,9.43
2019-06-20T12:07:50.314Z,10.32
2019-06-20T12:10:20.273Z,9.90
2019-06-20T12:12:49.673Z,9.35
2019-06-20T12:15:19.540Z,9.75
2019-06-20T12:17:49.429Z,9.98
2019-06-20T12:20:20.659Z,9.15
2019-06-20T12:22:50.728Z,8.80
2019-06-20T12:25:20.727Z,8.10
2019-06-20T12:27:50.314Z,7.40
2019-06-20T12:30:21.827Z,7.25
2019-06-20T12:32:51.334Z,8.13
2019-06-20T12:35:20.776Z,6.67
2019-06-20T12:37:51.660Z,6.15
2019-06-20T12:40:22.963Z,6.92
2019-06-20T12:42:52.386Z,7.15
2019-06-20T12:45:22.009Z,7.17
2019-06-20T12:47:51.466Z,7.73
2019-06-20T12:50:20.921Z,7.87
2019-06-20T12:52:51.925Z,8.00
2019-06-20T12:55:21.322Z,7.70
2019-06-20T12:57:50.686Z,8.37
2019-06-20T13:00:20.872Z,9.10
2019-06-20T13:02:51.259Z,8.63
2019-06-20T13:05:21.265Z,9.00
2019-06-20T13:07:50.641Z,9.40
2019-06-20T13:10:20.165Z,9.50
2019-06-20T13:12:49.648Z,9.57
2019-06-20T13:15:19.352Z,7.40
2019-06-20T13:17:49.187Z,7.90
2019-06-20T13:20:19.854Z,8.40
2019-06-20T13:22:49.657Z,8.97
2019-06-20T13:25:19.218Z,8.40
2019-06-20T13:27:50.240Z,7.70
2019-06-20T13:30:20.301Z,8.67
2019-06-20T13:32:49.655Z,9.27
2019-06-20T13:35:19.416Z,9.10
2019-06-20T13:37:49.847Z,9.73
2019-06-20T13:40:19.712Z,10.73
2019-06-20T13:42:50.367Z,10.80
2019-06-20T13:45:22.477Z,10.97
2019-06-20T13:47:52.054Z,11.07
2019-06-20T13:50:23.431Z,11.67
2019-06-20T13:52:52.745Z,11.07
2019-06-20T13:55:22.085Z,10.83
2019-06-20T13:57:51.501Z,11.17
2019-06-20T14:00:21.867Z,9.47
2019-06-20T14:02:51.768Z,9.43
2019-06-20T14:05:21.341Z,9.13
2019-06-20T14:07:53.548Z,8.40
2019-06-20T14:10:21.890Z,8.47
2019-06-20T14:12:51.275Z,8.40
2019-06-20T14:15:20.730Z,8.17
2019-06-20T14:17:50.170Z,7.40
2019-06-20T14:20:20.203Z,7.97
2019-06-20T14:22:49.788Z,7.90
2019-06-20T14:25:19.718Z,9.00
2019-06-20T14:27:49.561Z,8.83
2019-06-20T14:30:20.730Z,9.63
2019-06-20T14:32:51.427Z,9.43
2019-06-20T14:35:21.014Z,8.10
2019-06-20T14:37:51.761Z,8.23
2019-06-20T14:40:21.594Z,10.33
2019-06-20T14:42:52.395Z,13.67
2019-06-20T14:45:21.918Z,13.53
2019-06-20T14:47:52.523Z,10.90
2019-06-20T14:50:23.023Z,11.77
2019-06-20T14:52:53.998Z,11.80
2019-06-20T14:55:23.716Z,13.70
2019-06-20T14:57:54.729Z,12.17
2019-06-20T15:00:25.053Z,10.23
2019-06-20T15:02:58.403Z,12.40
2019-06-20T15:05:25.748Z,10.20
2019-06-20T15:07:55.889Z,9.90
2019-06-20T15:10:25.518Z,10.83
2019-06-20T15:12:56.028Z,15.30
2019-06-20T15:15:25.648Z,11.93
2019-06-20T15:17:56.294Z,9.53
2019-06-20T15:20:26.106Z,7.67
2019-06-20T15:22:56.679Z,7.43
2019-06-20T15:25:26.263Z,6.50
2019-06-20T15:27:57.111Z,6.80
2019-06-20T15:30:26.813Z,7.63
2019-06-20T15:33:07.601Z,7.47
2019-06-20T15:35:27.564Z,8.50
2019-06-20T15:37:57.683Z,9.47
2019-06-20T15:40:27.316Z,7.77
2019-06-20T15:42:57.398Z,6.90
2019-06-20T15:45:27.901Z,8.13
2019-06-20T15:47:57.305Z,7.30
2019-06-20T15:50:26.716Z,7.27
2019-06-20T15:52:56.133Z,7.27
2019-06-20T15:55:25.596Z,6.00
2019-06-20T15:57:54.987Z,6.00
2019-06-20T16:00:27.615Z,5.50
2019-06-20T16:03:09.466Z,5.70
2019-06-20T16:05:28.431Z,5.90
2019-06-20T16:07:57.755Z,5.83
2019-06-20T16:10:27.399Z,5.67
2019-06-20T16:12:56.767Z,5.57
2019-06-20T16:15:26.287Z,5.40
2019-06-20T16:17:55.622Z,5.47
2019-06-20T16:20:25.021Z,5.57
2019-06-20T16:22:54.484Z,5.50
2019-06-20T16:25:24.445Z,5.17
2019-06-20T16:27:53.831Z,5.10
2019-06-20T16:30:23.496Z,5.43
2019-06-20T16:32:53.021Z,5.07
2019-06-20T16:35:22.652Z,5.70
2019-06-20T16:37:52.079Z,5.80
2019-06-20T16:40:37.321Z,6.20
2019-06-20T16:43:06.676Z,6.67
2019-06-20T16:45:36.073Z,6.00
2019-06-20T16:48:05.554Z,6.67
2019-06-20T16:50:34.889Z,6.47
2019-06-20T16:53:04.475Z,7.27
2019-06-20T16:55:33.840Z,8.53
2019-06-20T16:58:03.231Z,7.53
2019-06-20T17:00:33.159Z,7.83
2019-06-20T17:03:02.515Z,7.03
2019-06-20T17:05:32.037Z,6.60
2019-06-20T17:08:01.497Z,6.87
2019-06-20T17:10:30.904Z,42.43
2019-06-20T17:13:00.315Z,14.00
2019-06-20T17:15:29.717Z,8.37
2019-06-20T17:17:59.119Z,7.67
2019-06-20T17:20:29.744Z,7.43
2019-06-20T17:22:59.229Z,7.30
2019-06-20T17:25:28.656Z,9.27
2019-06-20T17:27:58.422Z,9.97
2019-06-20T17:30:28.590Z,9.80
2019-06-20T17:32:58.098Z,10.30
2019-06-20T17:35:27.679Z,12.60
2019-06-20T17:37:57.961Z,12.60
2019-06-20T17:40:28.586Z,11.00
2019-06-20T17:42:58.040Z,9.63
2019-06-20T17:45:29.271Z,10.90
2019-06-20T17:47:58.842Z,10.30
2019-06-20T17:50:28.523Z,10.07
2019-06-20T17:52:58.168Z,10.37
2019-06-20T17:55:27.596Z,10.07
2019-06-20T17:57:57.097Z,10.07
2019-06-20T18:00:28.498Z,9.93
2019-06-20T18:02:57.864Z,9.40
2019-06-20T18:05:27.438Z,9.67
2019-06-20T18:07:57.077Z,9.60
2019-06-20T18:10:26.734Z,9.73
2019-06-20T18:12:56.133Z,10.47
2019-06-20T18:15:25.648Z,10.23
2019-06-20T18:17:55.373Z,11.90
2019-06-20T18:20:25.313Z,10.77
2019-06-20T18:22:54.690Z,10.10
2019-06-20T18:25:25.594Z,12.17
2019-06-20T18:27:54.965Z,10.80
2019-06-20T18:30:33.480Z,10.47
2019-06-20T18:33:02.869Z,10.83
2019-06-20T18:35:32.155Z,10.10
2019-06-20T18:38:01.622Z,12.73
2019-06-20T18:40:31.219Z,12.30
2019-06-20T18:43:00.589Z,10.90
2019-06-20T18:45:29.928Z,11.90
2019-06-20T18:47:59.323Z,11.13
2019-06-20T18:50:28.650Z,11.30
2019-06-20T18:52:58.044Z,12.23
2019-06-20T18:55:27.405Z,11.43
2019-06-20T18:57:56.760Z,12.13
2019-06-20T19:00:34.661Z,13.13
2019-06-20T19:02:57.395Z,12.37
2019-06-20T19:05:26.763Z,12.93
2019-06-20T19:07:56.107Z,14.73
2019-06-20T19:10:25.669Z,13.10
2019-06-20T19:12:55.024Z,12.87
2019-06-20T19:15:24.881Z,13.17
2019-06-20T19:17:54.287Z,12.53
2019-06-20T19:20:23.994Z,14.97
2019-06-20T19:22:53.478Z,14.83
2019-06-20T19:25:22.800Z,13.77
2019-06-20T19:27:53.346Z,14.93
2019-06-20T19:30:28.457Z,17.33
2019-06-20T19:32:58.652Z,15.03
2019-06-20T19:35:28.043Z,14.40
2019-06-20T19:37:57.435Z,14.97
2019-06-20T19:40:29.780Z,15.33
2019-06-20T19:42:59.168Z,15.23
2019-06-20T19:45:28.502Z,14.63
2019-06-20T19:47:57.875Z,14.97
2019-06-20T19:50:27.233Z,15.90
2019-06-20T19:52:56.662Z,14.47
2019-06-20T19:55:26.035Z,18.20
2019-06-20T19:57:55.498Z,11.00
2019-06-20T20:00:26.646Z,10.70
2019-06-20T20:02:56.019Z,10.30
2019-06-20T20:05:25.570Z,10.63
2019-06-20T20:07:54.927Z,9.70
2019-06-20T20:10:33.131Z,10.27
2019-06-20T20:13:03.065Z,11.90
2019-06-20T20:15:32.418Z,13.30
2019-06-20T20:18:02.256Z,11.87
2019-06-20T20:20:31.619Z,11.37
2019-06-20T20:23:00.987Z,13.10
2019-06-20T20:25:30.695Z,21.33
2019-06-20T20:28:00.160Z,11.83
2019-06-20T20:30:29.499Z,12.53
2019-06-20T20:33:01.897Z,12.97
2019-06-20T20:35:35.529Z,40.70
2019-06-20T20:38:01.492Z,23.00
2019-06-20T20:40:31.050Z,13.07
2019-06-20T20:43:00.381Z,11.83
2019-06-20T20:45:29.752Z,12.27
2019-06-20T20:47:59.098Z,16.60
2019-06-20T20:50:28.453Z,16.60
2019-06-20T20:52:57.856Z,15.77
2019-06-20T20:55:27.272Z,14.13
2019-06-20T20:57:56.621Z,17.60
2019-06-20T21:00:27.610Z,13.73
2019-06-20T21:02:56.939Z,12.90
2019-06-20T21:05:26.296Z,12.73
2019-06-20T21:07:55.665Z,13.90
2019-06-20T21:10:25.119Z,17.63
2019-06-20T21:12:54.490Z,17.53
2019-06-20T21:15:25.220Z,14.93
2019-06-20T21:17:55.803Z,13.83
2019-06-20T21:20:25.282Z,45.83
2019-06-20T21:22:54.731Z,30.10
2019-06-20T21:25:24.110Z,30.10
2019-06-20T21:27:53.473Z,33.33
2019-06-20T21:30:22.937Z,23.90
2019-06-20T21:32:52.300Z,18.03
2019-06-20T21:35:21.691Z,18.30
2019-06-20T21:37:51.056Z,14.53
2019-06-20T21:40:21.905Z,15.27
2019-06-20T21:42:52.186Z,15.03
2019-06-20T21:45:22.396Z,14.63
2019-06-20T21:47:51.765Z,30.97
2019-06-20T21:50:21.871Z,41.50
2019-06-20T21:52:51.288Z,22.10
2019-06-20T21:55:20.699Z,24.03
2019-06-20T21:57:50.063Z,18.70
2019-06-20T22:00:28.339Z,18.27
2019-06-20T22:02:58.017Z,18.10
2019-06-20T22:05:27.357Z,20.97
2019-06-20T22:07:56.742Z,17.60
2019-06-20T22:10:26.096Z,18.10
2019-06-20T22:12:55.467Z,17.33
2019-06-20T22:15:24.938Z,16.90
2019-06-20T22:17:54.273Z,15.23
2019-06-20T22:20:23.724Z,13.33
2019-06-20T22:22:53.244Z,12.90
2019-06-20T22:25:22.907Z,9.83
2019-06-20T22:27:52.516Z,9.63
2019-06-20T22:30:41.517Z,10.00
2019-06-20T22:33:11.010Z,9.60
2019-06-20T22:35:40.519Z,9.77
2019-06-20T22:38:10.040Z,9.87
2019-06-20T22:40:39.895Z,9.87
2019-06-20T22:43:09.359Z,9.93
2019-06-20T22:45:38.877Z,9.57
2019-06-20T22:48:08.609Z,9.77
2019-06-20T22:50:38.024Z,10.07
2019-06-20T22:53:07.502Z,11.00
2019-06-20T22:55:36.876Z,9.80
2019-06-20T22:58:06.567Z,10.10
2019-06-20T23:00:36.732Z,9.87
2019-06-20T23:03:06.618Z,9.17
2019-06-20T23:05:36.484Z,10.00
2019-06-20T23:08:06.006Z,10.33
2019-06-20T23:10:35.344Z,10.10
2019-06-20T23:13:04.854Z,10.60
2019-06-20T23:15:34.260Z,9.83
2019-06-20T23:18:03.633Z,10.73
2019-06-20T23:20:33.061Z,12.20
2019-06-20T23:23:02.391Z,9.93
2019-06-20T23:25:32.380Z,9.87
2019-06-20T23:28:02.051Z,9.23
2019-06-20T23:30:31.404Z,10.40
2019-06-20T23:33:00.849Z,11.70
2019-06-20T23:35:30.251Z,9.80
2019-06-20T23:37:59.629Z,9.60
2019-06-20T23:40:29.042Z,9.17
2019-06-20T23:42:58.401Z,9.67
2019-06-20T23:45:27.801Z,10.13
2019-06-20T23:47:57.206Z,9.90
2019-06-20T23:50:26.646Z,10.90
2019-06-20T23:53:10.622Z,9.30
2019-06-20T23:55:39.973Z,10.27
2019-06-20T23:58:09.363Z,10.40
